createdAt,value
2018-05-07T00:00:24.477Z,1016.03
2018-05-07T00:01:24.454Z,1016.05
2018-05-07T00:02:24.428Z,1016.03
2018-05-07T00:03:24.406Z,1016.03
2018-05-07T00:04:24.380Z,1015.99
2018-05-07T00:05:24.349Z,1016.00
2018-05-07T00:06:24.355Z,1016.01
2018-05-07T00:07:24.299Z,1015.98
2018-05-07T00:08:24.270Z,1016.00
2018-05-07T00:09:24.252Z,1015.99
2018-05-07T00:10:24.224Z,1015.98
2018-05-07T00:11:24.192Z,1015.98
2018-05-07T00:12:24.172Z,1015.99
2018-05-07T00:13:24.166Z,1016.00
2018-05-07T00:14:24.125Z,1015.96
2018-05-07T00:15:24.099Z,1016.00
2018-05-07T00:16:24.074Z,1016.00
2018-05-07T00:17:24.049Z,1016.01
2018-05-07T00:18:24.017Z,1016.00
2018-05-07T00:19:23.989Z,1016.00
2018-05-07T00:20:23.966Z,1015.97
2018-05-07T00:21:23.948Z,1015.95
2018-05-07T00:22:23.919Z,1015.93
2018-05-07T00:23:23.894Z,1015.91
2018-05-07T00:24:23.867Z,1015.91
2018-05-07T00:25:23.835Z,1015.93
2018-05-07T00:26:23.812Z,1015.90
2018-05-07T00:27:23.797Z,1015.92
2018-05-07T00:28:23.867Z,1015.91
2018-05-07T00:29:23.735Z,1015.94
2018-05-07T00:30:23.713Z,1015.92
2018-05-07T00:31:23.699Z,1015.91
2018-05-07T00:32:23.661Z,1015.93
2018-05-07T00:33:23.664Z,1015.91
2018-05-07T00:34:23.616Z,1015.95
2018-05-07T00:35:23.589Z,1015.95
2018-05-07T00:36:23.565Z,1015.92
2018-05-07T00:37:23.537Z,1015.91
2018-05-07T00:38:23.508Z,1015.94
2018-05-07T00:39:23.481Z,1015.90
2018-05-07T00:40:23.454Z,1015.92
2018-05-07T00:41:23.437Z,1015.91
2018-05-07T00:42:23.410Z,1015.90
2018-05-07T00:43:23.382Z,1015.91
2018-05-07T00:44:23.351Z,1015.90
2018-05-07T00:45:23.333Z,1015.92
2018-05-07T00:46:23.299Z,1015.96
2018-05-07T00:47:23.275Z,1015.96
2018-05-07T00:48:23.254Z,1016.00
2018-05-07T00:49:23.219Z,1016.01
2018-05-07T00:50:23.196Z,1015.99
2018-05-07T00:51:23.172Z,1015.95
2018-05-07T00:52:23.142Z,1015.93
2018-05-07T00:53:23.123Z,1015.94
2018-05-07T00:54:23.104Z,1015.95
2018-05-07T00:55:23.077Z,1015.94
2018-05-07T00:56:23.050Z,1015.94
2018-05-07T00:57:23.015Z,1015.96
2018-05-07T00:58:22.995Z,1015.99
2018-05-07T00:59:22.970Z,1015.99
2018-05-07T01:00:22.942Z,1015.97
2018-05-07T01:01:22.923Z,1015.98
2018-05-07T01:02:22.886Z,1016.00
2018-05-07T01:03:22.863Z,1016.03
2018-05-07T01:04:22.834Z,1015.97
2018-05-07T01:05:22.814Z,1016.00
2018-05-07T01:06:22.784Z,1015.99
2018-05-07T01:07:22.763Z,1015.98
2018-05-07T01:08:22.763Z,1015.98
2018-05-07T01:09:22.704Z,1016.01
2018-05-07T01:10:22.674Z,1016.00
2018-05-07T01:11:22.650Z,1016.01
2018-05-07T01:12:22.623Z,1016.01
2018-05-07T01:13:22.605Z,1016.03
2018-05-07T01:14:22.580Z,1016.01
2018-05-07T01:15:22.551Z,1016.03
2018-05-07T01:16:22.522Z,1016.01
2018-05-07T01:17:22.502Z,1016.00
2018-05-07T01:18:22.472Z,1016.02
2018-05-07T01:19:22.446Z,1016.03
2018-05-07T01:20:22.421Z,1016.03
2018-05-07T01:21:22.391Z,1016.07
2018-05-07T01:22:22.400Z,1016.08
2018-05-07T01:23:22.340Z,1016.10
2018-05-07T01:24:22.310Z,1016.12
2018-05-07T01:25:22.292Z,1016.09
2018-05-07T01:26:22.266Z,1016.09
2018-05-07T01:27:22.246Z,1016.03
2018-05-07T01:28:22.216Z,1016.04
2018-05-07T01:29:22.184Z,1016.05
2018-05-07T01:30:22.158Z,1016.03
2018-05-07T01:31:22.131Z,1016.04
2018-05-07T01:32:22.110Z,1016.06
2018-05-07T01:33:22.074Z,1016.03
2018-05-07T01:34:22.052Z,1016.06
2018-05-07T01:35:22.027Z,1016.02
2018-05-07T01:36:21.998Z,1016.06
2018-05-07T01:37:21.982Z,1016.06
2018-05-07T01:38:21.945Z,1016.09
2018-05-07T01:39:21.922Z,1016.07
2018-05-07T01:40:21.894Z,1016.08
2018-05-07T01:41:21.864Z,1016.08
2018-05-07T01:42:21.838Z,1016.04
2018-05-07T01:43:21.827Z,1016.05
2018-05-07T01:44:21.785Z,1016.08
2018-05-07T01:45:21.764Z,1016.06
2018-05-07T01:46:21.742Z,1016.05
2018-05-07T01:47:21.712Z,1016.08
2018-05-07T01:48:21.679Z,1016.06
2018-05-07T01:49:21.660Z,1016.03
2018-05-07T01:50:21.637Z,1016.03
2018-05-07T01:51:21.603Z,1016.00
2018-05-07T01:52:21.579Z,1015.97
2018-05-07T01:53:21.544Z,1016.01
2018-05-07T01:54:21.519Z,1015.99
2018-05-07T01:55:21.496Z,1015.97
2018-05-07T01:56:21.473Z,1015.95
2018-05-07T01:57:21.440Z,1015.94
2018-05-07T01:58:21.412Z,1015.96
2018-05-07T01:59:21.391Z,1015.94
2018-05-07T02:00:21.408Z,1015.93
2018-05-07T02:01:21.338Z,1015.92
2018-05-07T02:02:21.311Z,1015.99
2018-05-07T02:03:21.282Z,1015.94
2018-05-07T02:04:21.250Z,1015.95
2018-05-07T02:05:21.236Z,1015.97
2018-05-07T02:06:21.210Z,1015.97
2018-05-07T02:07:21.179Z,1015.96
2018-05-07T02:08:21.154Z,1015.97
2018-05-07T02:09:21.122Z,1015.93
2018-05-07T02:10:21.093Z,1015.96
2018-05-07T02:11:21.069Z,1015.95
2018-05-07T02:12:21.040Z,1015.93
2018-05-07T02:13:21.026Z,1015.92
2018-05-07T02:14:20.997Z,1015.89
2018-05-07T02:15:20.963Z,1015.87
2018-05-07T02:16:20.943Z,1015.85
2018-05-07T02:17:20.905Z,1015.87
2018-05-07T02:18:20.890Z,1015.82
2018-05-07T02:19:20.859Z,1015.84
2018-05-07T02:20:20.835Z,1015.86
2018-05-07T02:21:20.799Z,1015.86
2018-05-07T02:22:20.776Z,1015.89
2018-05-07T02:23:20.754Z,1015.86
2018-05-07T02:24:20.724Z,1015.85
2018-05-07T02:25:20.700Z,1015.87
2018-05-07T02:26:20.672Z,1015.89
2018-05-07T02:27:20.645Z,1015.83
2018-05-07T02:28:20.622Z,1015.86
2018-05-07T02:29:20.590Z,1015.87
2018-05-07T02:30:20.561Z,1015.91
2018-05-07T02:31:20.547Z,1015.85
2018-05-07T02:32:20.507Z,1015.87
2018-05-07T02:33:20.487Z,1015.87
2018-05-07T02:34:20.458Z,1015.84
2018-05-07T02:35:20.427Z,1015.84
2018-05-07T02:36:20.402Z,1015.85
2018-05-07T02:37:20.392Z,1015.82
2018-05-07T02:38:20.352Z,1015.81
2018-05-07T02:39:20.325Z,1015.85
2018-05-07T02:40:20.303Z,1015.85
2018-05-07T02:41:20.262Z,1015.89
2018-05-07T02:42:20.239Z,1015.88
2018-05-07T02:43:20.212Z,1015.85
2018-05-07T02:44:20.198Z,1015.82
2018-05-07T02:45:20.165Z,1015.84
2018-05-07T02:46:20.131Z,1015.86
2018-05-07T02:47:20.107Z,1015.84
2018-05-07T02:48:20.083Z,1015.83
2018-05-07T02:49:20.049Z,1015.81
2018-05-07T02:50:20.028Z,1015.78
2018-05-07T02:51:19.995Z,1015.78
2018-05-07T02:52:19.975Z,1015.77
2018-05-07T02:53:19.941Z,1015.78
2018-05-07T02:54:19.926Z,1015.76
2018-05-07T02:55:19.892Z,1015.71
2018-05-07T02:56:19.861Z,1015.72
2018-05-07T02:57:19.838Z,1015.73
2018-05-07T02:58:19.806Z,1015.75
2018-05-07T02:59:19.782Z,1015.79
2018-05-07T03:00:19.760Z,1015.77
2018-05-07T03:01:19.721Z,1015.74
2018-05-07T03:02:19.701Z,1015.71
2018-05-07T03:03:19.673Z,1015.70
2018-05-07T03:04:19.660Z,1015.71
2018-05-07T03:05:19.629Z,1015.73
2018-05-07T03:06:19.597Z,1015.73
2018-05-07T03:07:19.562Z,1015.72
2018-05-07T03:08:19.534Z,1015.69
2018-05-07T03:09:19.514Z,1015.73
2018-05-07T03:10:19.485Z,1015.71
2018-05-07T03:11:19.459Z,1015.70
2018-05-07T03:12:19.433Z,1015.67
2018-05-07T03:13:19.404Z,1015.65
2018-05-07T03:14:19.374Z,1015.63
2018-05-07T03:15:19.348Z,1015.65
2018-05-07T03:16:19.319Z,1015.63
2018-05-07T03:17:19.301Z,1015.62
2018-05-07T03:18:19.266Z,1015.59
2018-05-07T03:19:19.241Z,1015.62
2018-05-07T03:20:19.220Z,1015.56
2018-05-07T03:21:19.182Z,1015.55
2018-05-07T03:22:19.164Z,1015.55
2018-05-07T03:23:19.136Z,1015.52
2018-05-07T03:24:19.115Z,1015.56
2018-05-07T03:25:19.077Z,1015.54
2018-05-07T03:26:19.054Z,1015.55
2018-05-07T03:27:19.020Z,1015.56
2018-05-07T03:28:19.006Z,1015.60
2018-05-07T03:29:18.973Z,1015.52
2018-05-07T03:30:18.941Z,1015.54
2018-05-07T03:31:18.920Z,1015.49
2018-05-07T03:32:18.896Z,1015.55
2018-05-07T03:33:18.862Z,1015.53
2018-05-07T03:34:18.831Z,1015.61
2018-05-07T03:35:18.809Z,1015.57
2018-05-07T03:36:18.798Z,1015.57
2018-05-07T03:37:18.758Z,1015.60
2018-05-07T03:38:18.728Z,1015.61
2018-05-07T03:39:18.697Z,1015.59
2018-05-07T03:40:18.679Z,1015.58
2018-05-07T03:41:18.647Z,1015.58
2018-05-07T03:42:18.618Z,1015.57
2018-05-07T03:43:18.589Z,1015.55
2018-05-07T03:44:18.567Z,1015.56
2018-05-07T03:45:18.553Z,1015.58
2018-05-07T03:46:18.506Z,1015.56
2018-05-07T03:47:18.481Z,1015.55
2018-05-07T03:48:18.448Z,1015.57
2018-05-07T03:49:18.438Z,1015.57
2018-05-07T03:50:18.403Z,1015.54
2018-05-07T03:51:18.377Z,1015.55
2018-05-07T03:52:18.351Z,1015.54
2018-05-07T03:53:18.319Z,1015.53
2018-05-07T03:54:18.294Z,1015.52
2018-05-07T03:55:18.264Z,1015.50
2018-05-07T03:56:18.240Z,1015.54
2018-05-07T03:57:18.204Z,1015.53
2018-05-07T03:58:18.180Z,1015.52
2018-05-07T03:59:18.160Z,1015.50
2018-05-07T04:00:18.129Z,1015.45
2018-05-07T04:01:18.103Z,1015.48
2018-05-07T04:02:18.076Z,1015.45
2018-05-07T04:03:18.052Z,1015.49
2018-05-07T04:04:18.027Z,1015.45
2018-05-07T04:05:17.990Z,1015.43
2018-05-07T04:06:17.961Z,1015.46
2018-05-07T04:07:17.967Z,1015.46
2018-05-07T04:08:17.909Z,1015.46
2018-05-07T04:09:17.882Z,1015.40
2018-05-07T04:10:17.862Z,1015.43
2018-05-07T04:11:17.826Z,1015.43
2018-05-07T04:12:17.799Z,1015.41
2018-05-07T04:13:17.790Z,1015.41
2018-05-07T04:14:17.746Z,1015.43
2018-05-07T04:15:17.718Z,1015.42
2018-05-07T04:16:17.694Z,1015.37
2018-05-07T04:17:17.660Z,1015.36
2018-05-07T04:18:17.638Z,1015.38
2018-05-07T04:19:17.607Z,1015.38
2018-05-07T04:20:17.582Z,1015.39
2018-05-07T04:21:17.559Z,1015.37
2018-05-07T04:22:17.527Z,1015.32
2018-05-07T04:23:17.501Z,1015.28
2018-05-07T04:24:17.477Z,1015.31
2018-05-07T04:25:17.439Z,1015.33
2018-05-07T04:26:17.414Z,1015.30
2018-05-07T04:27:17.391Z,1015.31
2018-05-07T04:28:17.366Z,1015.33
2018-05-07T04:29:17.333Z,1015.35
2018-05-07T04:30:17.313Z,1015.37
2018-05-07T04:31:17.278Z,1015.42
2018-05-07T04:32:17.258Z,1015.35
2018-05-07T04:33:17.231Z,1015.36
2018-05-07T04:34:17.199Z,1015.38
2018-05-07T04:35:17.173Z,1015.42
2018-05-07T04:36:17.149Z,1015.39
2018-05-07T04:37:17.120Z,1015.39
2018-05-07T04:38:17.084Z,1015.43
2018-05-07T04:39:17.065Z,1015.40
2018-05-07T04:40:17.110Z,1015.39
2018-05-07T04:41:17.017Z,1015.39
2018-05-07T04:42:16.985Z,1015.40
2018-05-07T04:43:17.001Z,1015.41
2018-05-07T04:44:16.923Z,1015.41
2018-05-07T04:45:16.902Z,1015.40
2018-05-07T04:46:16.875Z,1015.46
2018-05-07T04:47:16.852Z,1015.41
2018-05-07T04:48:16.823Z,1015.43
2018-05-07T04:49:16.786Z,1015.39
2018-05-07T04:50:16.757Z,1015.42
2018-05-07T04:51:16.730Z,1015.35
2018-05-07T04:52:16.708Z,1015.39
2018-05-07T04:53:16.699Z,1015.38
2018-05-07T04:54:16.656Z,1015.38
2018-05-07T04:55:16.638Z,1015.39
2018-05-07T04:56:16.603Z,1015.36
2018-05-07T04:57:16.580Z,1015.36
2018-05-07T04:58:16.538Z,1015.41
2018-05-07T04:59:16.524Z,1015.39
2018-05-07T05:00:16.546Z,1015.41
2018-05-07T05:01:16.462Z,1015.41
2018-05-07T05:02:16.431Z,1015.38
2018-05-07T05:03:16.402Z,1015.40
2018-05-07T05:04:16.382Z,1015.40
2018-05-07T05:05:16.357Z,1015.42
2018-05-07T05:06:16.397Z,1015.37
2018-05-07T05:07:16.352Z,1015.39
2018-05-07T05:08:16.283Z,1015.42
2018-05-07T05:09:16.259Z,1015.43
2018-05-07T05:10:16.215Z,1015.44
2018-05-07T05:11:16.199Z,1015.42
2018-05-07T05:12:16.169Z,1015.45
2018-05-07T05:13:16.140Z,1015.41
2018-05-07T05:14:16.122Z,1015.44
2018-05-07T05:15:16.080Z,1015.47
2018-05-07T05:16:16.058Z,1015.43
2018-05-07T05:17:16.034Z,1015.39
2018-05-07T05:18:16.057Z,1015.44
2018-05-07T05:19:16.080Z,1015.42
2018-05-07T05:20:15.993Z,1015.43
2018-05-07T05:21:16.077Z,1015.45
2018-05-07T05:22:15.893Z,1015.47
2018-05-07T05:23:15.868Z,1015.43
2018-05-07T05:24:15.854Z,1015.44
2018-05-07T05:25:15.815Z,1015.47
2018-05-07T05:26:15.792Z,1015.48
2018-05-07T05:27:15.850Z,1015.47
2018-05-07T05:28:15.781Z,1015.48
2018-05-07T05:29:15.705Z,1015.40
2018-05-07T05:30:15.678Z,1015.45
2018-05-07T05:31:15.657Z,1015.45
2018-05-07T05:32:15.634Z,1015.44
2018-05-07T05:33:15.604Z,1015.43
2018-05-07T05:34:15.585Z,1015.41
2018-05-07T05:35:15.544Z,1015.42
2018-05-07T05:36:17.381Z,1015.41
2018-05-07T05:37:15.555Z,1015.37
2018-05-07T05:38:15.470Z,1015.42
2018-05-07T05:39:15.454Z,1015.43
2018-05-07T05:40:15.419Z,1015.44
2018-05-07T05:41:15.386Z,1015.46
2018-05-07T05:42:15.369Z,1015.48
2018-05-07T05:43:15.330Z,1015.47
2018-05-07T05:44:15.315Z,1015.48
2018-05-07T05:45:15.292Z,1015.44
2018-05-07T05:46:15.309Z,1015.45
2018-05-07T05:47:15.222Z,1015.44
2018-05-07T05:48:15.199Z,1015.41
2018-05-07T05:49:15.177Z,1015.45
2018-05-07T05:50:15.217Z,1015.43
2018-05-07T05:51:15.127Z,1015.42
2018-05-07T05:52:15.096Z,1015.43
2018-05-07T05:53:15.067Z,1015.43
2018-05-07T05:54:15.041Z,1015.41
2018-05-07T05:55:15.014Z,1015.40
2018-05-07T05:56:15.071Z,1015.41
2018-05-07T05:57:14.965Z,1015.34
2018-05-07T05:58:14.945Z,1015.39
2018-05-07T05:59:14.917Z,1015.39
2018-05-07T06:00:14.887Z,1015.32
2018-05-07T06:01:14.856Z,1015.35
2018-05-07T06:02:14.833Z,1015.35
2018-05-07T06:03:14.809Z,1015.34
2018-05-07T06:04:14.783Z,1015.35
2018-05-07T06:05:14.752Z,1015.33
2018-05-07T06:06:14.721Z,1015.33
2018-05-07T06:07:14.714Z,1015.32
2018-05-07T06:08:14.675Z,1015.36
2018-05-07T06:09:14.646Z,1015.37
2018-05-07T06:10:14.635Z,1015.34
2018-05-07T06:11:14.596Z,1015.39
2018-05-07T06:12:14.628Z,1015.39
2018-05-07T06:13:14.539Z,1015.38
2018-05-07T06:14:14.541Z,1015.40
2018-05-07T06:15:14.486Z,1015.41
2018-05-07T06:16:14.475Z,1015.39
2018-05-07T06:17:14.440Z,1015.45
2018-05-07T06:18:14.416Z,1015.41
2018-05-07T06:19:14.385Z,1015.45
2018-05-07T06:20:14.360Z,1015.40
2018-05-07T06:21:14.412Z,1015.44
2018-05-07T06:22:14.309Z,1015.39
2018-05-07T06:23:14.287Z,1015.42
2018-05-07T06:24:14.258Z,1015.41
2018-05-07T06:25:14.228Z,1015.42
2018-05-07T06:26:14.202Z,1015.43
2018-05-07T06:27:14.177Z,1015.45
2018-05-07T06:28:14.147Z,1015.45
2018-05-07T06:29:14.126Z,1015.43
2018-05-07T06:30:14.104Z,1015.46
2018-05-07T06:31:14.077Z,1015.48
2018-05-07T06:32:14.055Z,1015.43
2018-05-07T06:33:14.017Z,1015.48
2018-05-07T06:34:14.071Z,1015.47
2018-05-07T06:35:13.972Z,1015.47
2018-05-07T06:36:13.948Z,1015.45
2018-05-07T06:37:13.913Z,1015.48
2018-05-07T06:38:13.910Z,1015.49
2018-05-07T06:39:13.865Z,1015.52
2018-05-07T06:40:13.854Z,1015.51
2018-05-07T06:41:13.812Z,1015.46
2018-05-07T06:42:13.804Z,1015.47
2018-05-07T06:43:13.763Z,1015.49
2018-05-07T06:44:13.736Z,1015.48
2018-05-07T06:45:13.714Z,1015.49
2018-05-07T06:46:13.680Z,1015.49
2018-05-07T06:47:13.664Z,1015.48
2018-05-07T06:48:13.632Z,1015.50
2018-05-07T06:49:13.608Z,1015.49
2018-05-07T06:50:13.592Z,1015.49
2018-05-07T06:51:13.557Z,1015.49
2018-05-07T06:52:13.589Z,1015.46
2018-05-07T06:53:13.505Z,1015.44
2018-05-07T06:54:13.487Z,1015.47
2018-05-07T06:55:13.455Z,1015.44
2018-05-07T06:56:13.432Z,1015.49
2018-05-07T06:57:13.417Z,1015.44
2018-05-07T06:58:13.371Z,1015.49
2018-05-07T06:59:13.346Z,1015.47
2018-05-07T07:00:13.325Z,1015.46
2018-05-07T07:01:13.299Z,1015.45
2018-05-07T07:02:13.387Z,1015.50
2018-05-07T07:03:13.258Z,1015.46
2018-05-07T07:04:13.232Z,1015.47
2018-05-07T07:05:13.199Z,1015.47
2018-05-07T07:06:13.178Z,1015.44
2018-05-07T07:07:13.157Z,1015.42
2018-05-07T07:08:13.160Z,1015.44
2018-05-07T07:09:13.098Z,1015.40
2018-05-07T07:10:13.070Z,1015.42
2018-05-07T07:11:13.047Z,1015.44
2018-05-07T07:12:13.019Z,1015.40
2018-05-07T07:13:12.998Z,1015.44
2018-05-07T07:14:12.973Z,1015.42
2018-05-07T07:15:12.948Z,1015.44
2018-05-07T07:16:12.923Z,1015.38
2018-05-07T07:17:12.892Z,1015.41
2018-05-07T07:18:12.867Z,1015.45
2018-05-07T07:19:12.848Z,1015.46
2018-05-07T07:20:12.819Z,1015.40
2018-05-07T07:21:12.793Z,1015.41
2018-05-07T07:22:12.776Z,1015.37
2018-05-07T07:23:12.742Z,1015.37
2018-05-07T07:24:12.720Z,1015.34
2018-05-07T07:25:12.696Z,1015.32
2018-05-07T07:26:12.671Z,1015.35
2018-05-07T07:27:12.646Z,1015.28
2018-05-07T07:28:12.697Z,1015.32
2018-05-07T07:29:12.595Z,1015.31
2018-05-07T07:30:12.565Z,1015.34
2018-05-07T07:31:12.549Z,1015.32
2018-05-07T07:32:12.525Z,1015.35
2018-05-07T07:33:12.522Z,1015.32
2018-05-07T07:34:12.471Z,1015.33
2018-05-07T07:35:12.460Z,1015.32
2018-05-07T07:36:12.435Z,1015.30
2018-05-07T07:37:12.397Z,1015.36
2018-05-07T07:38:12.368Z,1015.33
2018-05-07T07:39:12.353Z,1015.32
2018-05-07T07:40:12.393Z,1015.32
2018-05-07T07:41:12.290Z,1015.31
2018-05-07T07:42:12.265Z,1015.28
2018-05-07T07:43:12.243Z,1015.29
2018-05-07T07:44:12.227Z,1015.29
2018-05-07T07:45:12.201Z,1015.26
2018-05-07T07:46:12.181Z,1015.28
2018-05-07T07:47:12.234Z,1015.26
2018-05-07T07:48:12.122Z,1015.29
2018-05-07T07:49:12.111Z,1015.26
2018-05-07T07:50:12.066Z,1015.27
2018-05-07T07:51:12.042Z,1015.30
2018-05-07T07:52:12.024Z,1015.29
2018-05-07T07:53:12.001Z,1015.35
2018-05-07T07:54:11.978Z,1015.36
2018-05-07T07:55:11.945Z,1015.36
2018-05-07T07:56:11.929Z,1015.36
2018-05-07T07:57:11.913Z,1015.38
2018-05-07T07:58:11.878Z,1015.37
2018-05-07T07:59:11.854Z,1015.35
2018-05-07T08:00:11.831Z,1015.33
2018-05-07T08:01:11.812Z,1015.31
2018-05-07T08:02:11.783Z,1015.33
2018-05-07T08:03:11.755Z,1015.29
2018-05-07T08:04:11.773Z,1015.31
2018-05-07T08:05:11.721Z,1015.32
2018-05-07T08:06:11.684Z,1015.30
2018-05-07T08:07:11.664Z,1015.30
2018-05-07T08:08:11.645Z,1015.29
2018-05-07T08:09:11.611Z,1015.29
2018-05-07T08:10:11.581Z,1015.29
2018-05-07T08:11:11.566Z,1015.26
2018-05-07T08:12:11.576Z,1015.24
2018-05-07T08:13:13.425Z,1015.22
2018-05-07T08:14:11.487Z,1015.24
2018-05-07T08:15:11.502Z,1015.21
2018-05-07T08:16:11.446Z,1015.23
2018-05-07T08:17:11.423Z,1015.28
2018-05-07T08:18:11.394Z,1015.25
2018-05-07T08:19:12.913Z,1015.28
2018-05-07T08:20:11.348Z,1015.24
2018-05-07T08:21:11.320Z,1015.18
2018-05-07T08:22:11.299Z,1015.22
2018-05-07T08:23:11.268Z,1015.21
2018-05-07T08:24:11.250Z,1015.19
2018-05-07T08:25:11.233Z,1015.26
2018-05-07T08:26:11.207Z,1015.24
2018-05-07T08:27:11.185Z,1015.23
2018-05-07T08:28:11.156Z,1015.22
2018-05-07T08:29:11.135Z,1015.20
2018-05-07T08:30:11.109Z,1015.20
2018-05-07T08:31:11.086Z,1015.18
2018-05-07T08:32:11.059Z,1015.15
2018-05-07T08:33:11.055Z,1015.14
2018-05-07T08:34:11.015Z,1015.14
2018-05-07T08:35:11.001Z,1015.13
2018-05-07T08:36:10.973Z,1015.09
2018-05-07T08:37:10.945Z,1015.06
2018-05-07T08:38:10.920Z,1015.01
2018-05-07T08:39:10.903Z,1015.06
2018-05-07T08:40:10.873Z,1015.03
2018-05-07T08:41:10.852Z,1015.02
2018-05-07T08:42:10.823Z,1015.01
2018-05-07T08:43:10.811Z,1014.97
2018-05-07T08:44:10.789Z,1015.02
2018-05-07T08:45:10.792Z,1015.04
2018-05-07T08:46:10.735Z,1015.01
2018-05-07T08:47:10.705Z,1014.97
2018-05-07T08:48:10.690Z,1014.98
2018-05-07T08:49:10.670Z,1014.97
2018-05-07T08:50:10.644Z,1014.99
2018-05-07T08:51:10.643Z,1014.97
2018-05-07T08:52:10.601Z,1014.95
2018-05-07T08:53:10.681Z,1014.97
2018-05-07T08:54:10.603Z,1014.96
2018-05-07T08:55:10.541Z,1014.96
2018-05-07T08:56:10.503Z,1014.96
2018-05-07T08:57:10.483Z,1014.91
2018-05-07T08:58:10.450Z,1014.89
2018-05-07T08:59:10.462Z,1014.87
2018-05-07T09:00:10.413Z,1014.88
2018-05-07T09:01:10.386Z,1014.85
2018-05-07T09:02:10.399Z,1014.87
2018-05-07T09:03:10.341Z,1014.86
2018-05-07T09:04:10.322Z,1014.87
2018-05-07T09:05:10.299Z,1014.85
2018-05-07T09:06:10.282Z,1014.85
2018-05-07T09:07:10.256Z,1014.82
2018-05-07T09:08:10.315Z,1014.85
2018-05-07T09:09:10.208Z,1014.86
2018-05-07T09:10:10.185Z,1014.85
2018-05-07T09:11:10.159Z,1014.80
2018-05-07T09:12:10.148Z,1014.77
2018-05-07T09:13:10.135Z,1014.76
2018-05-07T09:14:10.099Z,1014.82
2018-05-07T09:15:10.143Z,1014.76
2018-05-07T09:16:10.055Z,1014.76
2018-05-07T09:17:10.029Z,1014.70
2018-05-07T09:18:10.009Z,1014.76
2018-05-07T09:19:09.987Z,1014.74
2018-05-07T09:20:09.974Z,1014.77
2018-05-07T09:21:09.941Z,1014.71
2018-05-07T09:22:09.919Z,1014.70
2018-05-07T09:23:09.899Z,1014.66
2018-05-07T09:24:09.871Z,1014.68
2018-05-07T09:25:09.856Z,1014.65
2018-05-07T09:26:09.838Z,1014.63
2018-05-07T09:27:09.816Z,1014.67
2018-05-07T09:28:09.811Z,1014.64
2018-05-07T09:29:09.764Z,1014.64
2018-05-07T09:30:09.746Z,1014.60
2018-05-07T09:31:09.725Z,1014.60
2018-05-07T09:32:09.699Z,1014.60
2018-05-07T09:33:09.673Z,1014.59
2018-05-07T09:34:09.648Z,1014.59
2018-05-07T09:35:09.631Z,1014.55
2018-05-07T09:36:09.611Z,1014.57
2018-05-07T09:37:09.597Z,1014.57
2018-05-07T09:38:09.575Z,1014.56
2018-05-07T09:39:09.549Z,1014.56
2018-05-07T09:40:09.557Z,1014.51
2018-05-07T09:41:09.506Z,1014.55
2018-05-07T09:42:09.480Z,1014.54
2018-05-07T09:43:09.467Z,1014.48
2018-05-07T09:44:09.440Z,1014.50
2018-05-07T09:45:09.421Z,1014.49
2018-05-07T09:46:09.410Z,1014.49
2018-05-07T09:47:09.376Z,1014.54
2018-05-07T09:48:09.360Z,1014.50
2018-05-07T09:49:09.333Z,1014.51
2018-05-07T09:50:09.312Z,1014.51
2018-05-07T09:51:09.301Z,1014.46
2018-05-07T09:52:09.275Z,1014.54
2018-05-07T09:53:09.251Z,1014.52
2018-05-07T09:54:09.223Z,1014.46
2018-05-07T09:55:09.207Z,1014.46
2018-05-07T09:56:09.182Z,1014.42
2018-05-07T09:57:09.167Z,1014.42
2018-05-07T09:58:09.145Z,1014.43
2018-05-07T09:59:09.133Z,1014.40
2018-05-07T10:00:09.101Z,1014.39
2018-05-07T10:01:09.082Z,1014.39
2018-05-07T10:02:09.053Z,1014.35
2018-05-07T10:03:09.044Z,1014.35
2018-05-07T10:04:09.021Z,1014.34
2018-05-07T10:05:08.998Z,1014.33
2018-05-07T10:06:08.969Z,1014.29
2018-05-07T10:07:08.958Z,1014.31
2018-05-07T10:08:08.949Z,1014.33
2018-05-07T10:09:08.913Z,1014.30
2018-05-07T10:10:08.896Z,1014.27
2018-05-07T10:11:08.875Z,1014.25
2018-05-07T10:12:08.851Z,1014.22
2018-05-07T10:13:08.827Z,1014.22
2018-05-07T10:14:08.805Z,1014.23
2018-05-07T10:15:08.793Z,1014.23
2018-05-07T10:16:08.764Z,1014.24
2018-05-07T10:17:08.826Z,1014.22
2018-05-07T10:18:08.734Z,1014.19
2018-05-07T10:19:08.701Z,1014.11
2018-05-07T10:20:08.689Z,1014.13
2018-05-07T10:21:08.666Z,1014.14
2018-05-07T10:22:08.656Z,1014.14
2018-05-07T10:23:08.631Z,1014.09
2018-05-07T10:24:08.616Z,1014.11
2018-05-07T10:25:08.590Z,1014.08
2018-05-07T10:26:08.559Z,1014.07
2018-05-07T10:27:08.540Z,1014.05
2018-05-07T10:28:08.524Z,1014.10
2018-05-07T10:29:08.514Z,1014.13
2018-05-07T10:30:08.489Z,1014.09
2018-05-07T10:31:08.470Z,1014.11
2018-05-07T10:32:08.445Z,1014.10
2018-05-07T10:33:08.429Z,1014.10
2018-05-07T10:34:08.411Z,1014.10
2018-05-07T10:35:08.386Z,1014.07
2018-05-07T10:36:08.366Z,1014.09
2018-05-07T10:37:08.344Z,1014.04
2018-05-07T10:38:08.328Z,1014.04
2018-05-07T10:39:08.305Z,1014.03
2018-05-07T10:40:08.285Z,1014.00
2018-05-07T10:41:08.265Z,1014.04
2018-05-07T10:42:08.246Z,1014.05
2018-05-07T10:43:08.232Z,1014.00
2018-05-07T10:44:08.215Z,1014.00
2018-05-07T10:45:08.185Z,1013.99
2018-05-07T10:46:08.161Z,1013.98
2018-05-07T10:47:08.148Z,1013.97
2018-05-07T10:48:08.127Z,1013.95
2018-05-07T10:49:08.205Z,1013.97
2018-05-07T10:50:08.091Z,1013.94
2018-05-07T10:51:08.085Z,1013.92
2018-05-07T10:52:08.055Z,1013.93
2018-05-07T10:53:08.029Z,1013.92
2018-05-07T10:54:08.013Z,1013.93
2018-05-07T10:55:08.000Z,1013.91
2018-05-07T10:56:08.027Z,1013.91
2018-05-07T10:57:07.952Z,1013.89
2018-05-07T10:58:07.929Z,1013.90
2018-05-07T10:59:07.917Z,1013.86
2018-05-07T11:00:07.913Z,1013.84
2018-05-07T11:01:07.874Z,1013.84
2018-05-07T11:02:07.874Z,1013.83
2018-05-07T11:03:07.845Z,1013.82
2018-05-07T11:04:07.823Z,1013.76
2018-05-07T11:05:07.795Z,1013.74
2018-05-07T11:06:07.770Z,1013.75
2018-05-07T11:07:07.795Z,1013.73
2018-05-07T11:08:07.753Z,1013.73
2018-05-07T11:09:07.719Z,1013.74
2018-05-07T11:10:07.696Z,1013.69
2018-05-07T11:11:07.675Z,1013.70
2018-05-07T11:12:07.659Z,1013.65
2018-05-07T11:13:07.644Z,1013.69
2018-05-07T11:14:07.623Z,1013.66
2018-05-07T11:15:07.611Z,1013.66
2018-05-07T11:16:07.664Z,1013.65
2018-05-07T11:17:07.563Z,1013.60
2018-05-07T11:18:07.548Z,1013.55
2018-05-07T11:19:07.522Z,1013.58
2018-05-07T11:20:07.513Z,1013.61
2018-05-07T11:21:07.489Z,1013.60
2018-05-07T11:22:07.474Z,1013.62
2018-05-07T11:23:07.451Z,1013.60
2018-05-07T11:24:07.429Z,1013.62
2018-05-07T11:25:07.418Z,1013.64
2018-05-07T11:26:07.407Z,1013.61
2018-05-07T11:27:07.378Z,1013.64
2018-05-07T11:28:07.356Z,1013.58
2018-05-07T11:29:07.337Z,1013.57
2018-05-07T11:30:07.315Z,1013.58
2018-05-07T11:31:07.366Z,1013.52
2018-05-07T11:32:07.279Z,1013.54
2018-05-07T11:33:07.269Z,1013.62
2018-05-07T11:34:07.247Z,1013.59
2018-05-07T11:35:07.236Z,1013.55
2018-05-07T11:36:07.219Z,1013.55
2018-05-07T11:37:07.200Z,1013.52
2018-05-07T11:38:07.169Z,1013.52
2018-05-07T11:39:07.240Z,1013.50
2018-05-07T11:40:07.156Z,1013.51
2018-05-07T11:41:07.123Z,1013.51
2018-05-07T11:42:07.107Z,1013.53
2018-05-07T11:43:07.093Z,1013.50
2018-05-07T11:44:07.123Z,1013.55
2018-05-07T11:45:07.064Z,1013.54
2018-05-07T11:46:08.959Z,1013.56
2018-05-07T11:47:07.030Z,1013.57
2018-05-07T11:48:07.023Z,1013.58
2018-05-07T11:49:06.997Z,1013.52
2018-05-07T11:50:06.978Z,1013.53
2018-05-07T11:51:06.963Z,1013.50
2018-05-07T11:52:06.956Z,1013.48
2018-05-07T11:53:06.952Z,1013.43
2018-05-07T11:54:06.946Z,1013.51
2018-05-07T11:55:06.903Z,1013.47
2018-05-07T11:56:06.953Z,1013.50
2018-05-07T11:57:06.940Z,1013.44
2018-05-07T11:58:06.918Z,1013.40
2018-05-07T11:59:06.933Z,1013.41
2018-05-07T12:00:06.832Z,1013.41
2018-05-07T12:01:06.818Z,1013.39
2018-05-07T12:02:06.853Z,1013.41
2018-05-07T12:03:06.807Z,1013.43
2018-05-07T12:04:06.780Z,1013.44
2018-05-07T12:05:06.763Z,1013.38